Seattle, WA (98107)

6:02 PM PDT on September 03, 2015 (GMT -0700)
Ballard Playground | | Change Station
CLOSE
Current Station
Personal Weather Station
Location: Seattle, WA
Elevation: 108 ft
Nearby Weather Stations

Elev 108 ft 47.67 °N, 122.39 °W | Updated 1 minute ago

Overcast
Overcast
64.0 °F
Feels Like 64.0 °F
N
1.0
Wind Variable Wind from West
Gusts 1.0 mph

Today
High -- | Low -- °F
--% Chance of Precip.
Yesterday
High -- | Low -- °F
Precip. -- in
6:30 AM 7:46 PM
Waning Gibbous, 65% visible
Pressure 29.98 in
Visibility 10.0 miles
Clouds Scattered Clouds 8000 ft
Mostly Cloudy 20000 ft
Dew Point 51 °F
Humidity 62%
Rainfall 0.00 in
Snow Depth Not available.
UV 1 out of 12
Pollen 1.50 out of 12
Air Quality Not available.
Flu Activity Not available.
METAR KBFI 040053Z 23006KT 10SM SCT080 BKN200 18/07 A2998 RMK AO2 SLP150 T01830067
Pressure 29.98 in
Visibility 10.0 miles
Clouds Scattered Clouds 8000 ft
Mostly Cloudy 20000 ft
Dew Point 51 °F
Humidity 62%
Rainfall 0.00 in
Snow Depth Not available.
UV 1 out of 12
Pollen 1.50 out of 12
Air Quality Not available.
Flu Activity Not available.
METAR KBFI 040053Z 23006KT 10SM SCT080 BKN200 18/07 A2998 RMK AO2 SLP150 T01830067

10-Day Weather Forecast

×

Almanac

Astronomy

Sep. 03, 2015 Rise Set
Actual Time
Civil Twilight
Nautical Twilight
Astronomical Twilight
Moon
Length of Visible Light
Length of Day
Tomorrow will be .
, % of the Moon is Illuminated

Today's Extremes

State Highs State Lows

Community

WunderPhotos

Upload Photos

1,852,081 photos uploaded!

WunderBlogs® & News

Nearby

Air Quality

  Air Quality AQ Index Pollutant
Not available.

Snow Depth

Station Depth Elevation

Earthquake Activity

City Distance Mag. Time & Date
Minimum magnitude displayed is 2.5.

Coastal Water Temperatures

Place Temperature

Stations

Nearby Weather Stations

Station Location Temp. Windchill Dew Point Humidity Wind Precip. Elev Updated Type